Time;durP1;ratioP1;P1;durP2;ratioP2;P2;SDS_P1;SDS_P2;PMS_P1;PMS_P2;Temp;Humidity;BMP_temperature;BMP_pressure;BME280_temperature;BME280_humidity;BME280_pressure;Samples;Min_cycle;Max_cycle;Signal;HPM_P1;HPM_P2
2021/12/31 00:01:00;;;;;;;4.10;3.60;;;12.70;99.90;;;;;;5049535;28;20761;-91
2021/12/31 00:03:26;;;;;;;4.67;3.80;;;12.80;99.90;;;;;;5058401;28;20194;-91
2021/12/31 00:05:51;;;;;;;4.77;3.80;;;12.80;99.90;;;;;;5039078;28;20238;-91
2021/12/31 00:08:17;;;;;;;4.27;3.83;;;12.80;99.90;;;;;;5071014;28;20632;-91
2021/12/31 00:10:43;;;;;;;4.20;3.80;;;12.90;99.90;;;;;;5057037;28;20271;-90
2021/12/31 00:13:08;;;;;;;4.20;3.80;;;12.70;99.90;;;;;;5030015;28;20365;-90
2021/12/31 00:15:34;;;;;;;4.23;3.63;;;12.60;99.90;;;;;;5060461;28;20571;-89
2021/12/31 00:18:00;;;;;;;5.47;3.90;;;12.70;99.90;;;;;;5067763;28;20210;-90
2021/12/31 00:20:26;;;;;;;4.93;3.97;;;12.60;99.90;;;;;;5068954;28;20211;-89
2021/12/31 00:23:10;;;;;;;4.80;3.80;;;12.60;99.90;;;;;;5063125;28;20183;-90
2021/12/31 00:25:39;;;;;;;6.50;4.27;;;12.60;99.90;;;;;;5047026;28;20239;-90
2021/12/31 00:28:05;;;;;;;6.53;4.60;;;12.60;99.90;;;;;;5049930;28;20191;-90
2021/12/31 00:30:31;;;;;;;5.83;4.63;;;12.40;99.90;;;;;;5043800;28;20290;-90
2021/12/31 00:32:57;;;;;;;5.10;3.80;;;12.50;99.90;;;;;;5037015;28;20207;-90
2021/12/31 00:35:23;;;;;;;4.30;3.90;;;12.40;99.90;;;;;;5049416;28;20195;-90
2021/12/31 00:37:49;;;;;;;3.90;3.60;;;12.40;99.90;;;;;;5034714;28;20586;-90
2021/12/31 00:40:17;;;;;;;5.17;3.97;;;12.40;99.90;;;;;;5063384;28;20206;-90
2021/12/31 00:42:43;;;;;;;4.37;3.97;;;12.50;99.90;;;;;;5052393;28;20210;-90
2021/12/31 00:45:12;;;;;;;4.30;3.67;;;12.50;99.90;;;;;;5056330;28;20279;-90
2021/12/31 00:47:38;;;;;;;3.57;3.27;;;12.60;99.90;;;;;;5049137;28;20194;-90
2021/12/31 00:50:04;;;;;;;6.70;4.43;;;12.60;99.90;;;;;;5063883;28;20277;-90
2021/12/31 00:52:30;;;;;;;4.40;4.00;;;12.50;99.90;;;;;;5046932;28;20649;-90
2021/12/31 00:54:56;;;;;;;4.90;3.60;;;12.50;99.90;;;;;;5061189;28;20195;-90
2021/12/31 00:57:21;;;;;;;5.57;4.00;;;12.40;99.90;;;;;;5057610;28;20687;-90
2021/12/31 00:59:47;;;;;;;5.43;4.33;;;12.40;99.90;;;;;;5029722;28;20199;-90
2021/12/31 01:02:13;;;;;;;4.40;4.00;;;12.40;99.90;;;;;;5067618;28;20191;-90
2021/12/31 01:04:39;;;;;;;3.90;3.60;;;12.50;99.90;;;;;;5054393;28;20178;-90
2021/12/31 01:07:06;;;;;;;4.50;4.10;;;12.50;99.90;;;;;;5071832;28;20293;-90
2021/12/31 01:09:32;;;;;;;4.40;4.00;;;12.50;99.90;;;;;;5057822;28;20215;-90
2021/12/31 01:12:00;;;;;;;6.03;4.03;;;12.40;99.90;;;;;;5061960;28;20184;-90
2021/12/31 01:14:34;;;;;;;5.03;3.60;;;12.40;99.90;;;;;;5066095;28;20190;-90
2021/12/31 01:17:04;;;;;;;4.27;3.60;;;12.50;99.90;;;;;;5059744;28;20300;-89
2021/12/31 01:19:49;;;;;;;4.77;3.63;;;12.40;99.90;;;;;;5058264;28;20210;-90
2021/12/31 01:22:30;;;;;;;4.77;4.07;;;12.40;99.90;;;;;;5062692;28;20176;-90
2021/12/31 01:24:57;;;;;;;5.03;3.70;;;12.30;99.90;;;;;;5040456;28;20661;-90
2021/12/31 01:27:22;;;;;;;5.73;4.43;;;12.20;99.90;;;;;;5061102;28;20286;-90
2021/12/31 01:29:48;;;;;;;4.80;3.77;;;12.00;99.90;;;;;;5059559;28;20303;-90
2021/12/31 01:32:14;;;;;;;4.57;3.93;;;12.10;99.90;;;;;;5041380;28;20195;-90
2021/12/31 01:34:40;;;;;;;4.60;4.00;;;12.20;99.90;;;;;;5035005;28;20212;-90
2021/12/31 01:37:07;;;;;;;4.77;4.30;;;12.20;99.90;;;;;;5052073;28;20292;-90
2021/12/31 01:39:34;;;;;;;7.97;3.63;;;12.10;99.90;;;;;;5062938;28;20200;-90
2021/12/31 01:42:01;;;;;;;5.83;4.07;;;12.10;99.90;;;;;;5048162;28;20250;-90
2021/12/31 01:44:35;;;;;;;4.00;3.60;;;12.00;99.90;;;;;;5043307;28;20237;-90
2021/12/31 01:47:06;;;;;;;4.80;3.77;;;12.20;99.90;;;;;;5075402;28;20226;-90
2021/12/31 01:49:36;;;;;;;4.00;3.70;;;12.10;99.90;;;;;;5057307;28;20206;-90
2021/12/31 01:52:02;;;;;;;4.10;3.70;;;12.20;99.90;;;;;;5059264;28;20241;-90
2021/12/31 01:54:30;;;;;;;5.80;3.70;;;12.10;99.90;;;;;;5045896;28;20184;-90
2021/12/31 01:56:56;;;;;;;5.23;3.80;;;12.00;99.90;;;;;;5029932;28;20207;-90
2021/12/31 01:59:22;;;;;;;4.17;3.70;;;12.00;99.90;;;;;;5048322;28;20218;-90
2021/12/31 02:01:47;;;;;;;7.90;3.73;;;11.80;99.90;;;;;;5055063;28;20171;-90
2021/12/31 02:04:13;;;;;;;4.03;3.60;;;11.60;99.90;;;;;;5059047;28;20210;-91
2021/12/31 02:06:39;;;;;;;3.43;3.13;;;11.50;99.90;;;;;;5027168;28;20213;-90
2021/12/31 02:09:06;;;;;;;4.43;4.03;;;11.50;99.90;;;;;;5042780;28;20219;-90
2021/12/31 02:11:32;;;;;;;4.00;3.60;;;11.50;99.90;;;;;;5042246;28;20344;-90
2021/12/31 02:14:00;;;;;;;4.70;3.83;;;11.40;99.90;;;;;;5049176;28;20468;-90
2021/12/31 02:16:25;;;;;;;4.27;3.30;;;11.40;99.90;;;;;;5044765;28;20198;-91
2021/12/31 02:18:51;;;;;;;4.87;3.80;;;11.40;99.90;;;;;;5065455;28;20247;-90
2021/12/31 02:21:17;;;;;;;3.97;3.20;;;11.40;99.90;;;;;;5065280;28;20185;-90
2021/12/31 02:23:46;;;;;;;5.43;3.97;;;11.40;99.90;;;;;;5064958;28;21174;-90
2021/12/31 02:26:12;;;;;;;3.73;3.43;;;11.40;99.90;;;;;;5062497;28;20243;-90
2021/12/31 02:28:39;;;;;;;7.93;3.63;;;11.50;99.90;;;;;;5060030;28;20183;-90
2021/12/31 02:31:05;;;;;;;5.23;4.13;;;11.60;99.90;;;;;;5074434;28;20230;-90
2021/12/31 02:33:32;;;;;;;4.27;3.87;;;11.60;99.90;;;;;;5078208;28;20175;-90
2021/12/31 02:35:59;;;;;;;4.33;3.67;;;11.70;99.90;;;;;;5044983;28;20194;-89
2021/12/31 02:38:25;;;;;;;4.07;3.37;;;11.60;99.90;;;;;;5043519;28;20215;-90
2021/12/31 02:40:51;;;;;;;3.63;3.33;;;11.60;99.90;;;;;;5062166;28;20223;-89
2021/12/31 02:43:16;;;;;;;5.67;3.60;;;11.60;99.90;;;;;;5043950;28;20187;-90
2021/12/31 02:45:42;;;;;;;3.77;3.40;;;11.60;99.90;;;;;;5037831;28;20181;-88
2021/12/31 02:48:08;;;;;;;3.67;3.27;;;11.50;99.90;;;;;;5053146;28;20195;-90
2021/12/31 02:50:39;;;;;;;4.73;3.00;;;11.60;99.90;;;;;;5047494;28;20227;-89
2021/12/31 02:53:15;;;;;;;3.50;3.20;;;11.60;99.90;;;;;;5046547;28;20180;-90
2021/12/31 02:55:43;;;;;;;3.63;3.17;;;11.60;99.90;;;;;;5059408;28;20183;-90
2021/12/31 02:58:10;;;;;;;3.83;3.20;;;11.50;99.90;;;;;;5060720;28;20208;-90
2021/12/31 03:00:39;;;;;;;3.83;3.43;;;11.60;99.90;;;;;;5058085;28;20263;-89
2021/12/31 03:03:06;;;;;;;3.87;3.47;;;11.50;99.90;;;;;;5059237;28;20186;-90
2021/12/31 03:05:35;;;;;;;3.80;3.27;;;11.50;99.90;;;;;;5059868;28;20242;-90
2021/12/31 03:08:03;;;;;;;3.50;3.17;;;11.40;99.90;;;;;;5047641;28;20190;-89
2021/12/31 03:10:30;;;;;;;4.00;3.67;;;11.30;99.90;;;;;;5058302;28;20845;-90
2021/12/31 03:12:56;;;;;;;3.70;3.40;;;11.40;99.90;;;;;;5061734;28;20192;-89
2021/12/31 03:15:24;;;;;;;3.47;3.17;;;11.30;99.90;;;;;;5042312;28;20199;-90
2021/12/31 03:17:51;;;;;;;4.30;3.80;;;11.30;99.90;;;;;;5039582;28;20209;-89
2021/12/31 03:20:26;;;;;;;4.30;3.60;;;11.30;99.90;;;;;;5059209;28;20639;-89
2021/12/31 03:22:52;;;;;;;5.20;4.10;;;11.30;99.90;;;;;;5066382;28;20188;-90
2021/12/31 03:25:19;;;;;;;5.87;3.80;;;11.30;99.90;;;;;;5049312;28;20194;-89
2021/12/31 03:27:44;;;;;;;4.90;4.47;;;11.30;99.90;;;;;;5042889;28;20205;-89
2021/12/31 03:30:11;;;;;;;4.77;4.30;;;11.30;99.90;;;;;;5062679;28;20221;-90
2021/12/31 03:32:38;;;;;;;5.07;4.37;;;11.30;99.90;;;;;;5063121;28;20207;-90
2021/12/31 03:35:04;;;;;;;6.10;4.50;;;11.20;99.90;;;;;;5062749;28;20234;-89
2021/12/31 03:37:30;;;;;;;4.53;4.13;;;11.20;99.90;;;;;;5058664;28;20216;-89
2021/12/31 03:39:56;;;;;;;4.60;4.20;;;11.20;99.90;;;;;;5053413;28;20207;-90
2021/12/31 03:42:21;;;;;;;4.40;3.43;;;11.20;99.90;;;;;;5074987;28;20220;-90
2021/12/31 03:44:47;;;;;;;4.20;3.80;;;11.20;99.90;;;;;;5063090;28;20184;-89
2021/12/31 03:47:13;;;;;;;5.53;4.13;;;11.20;99.90;;;;;;5045837;28;20276;-89
2021/12/31 03:49:39;;;;;;;4.67;4.27;;;11.20;99.90;;;;;;5044693;28;20216;-89
2021/12/31 03:52:05;;;;;;;4.30;3.83;;;11.20;99.90;;;;;;5062471;28;20191;-89
2021/12/31 03:54:30;;;;;;;4.27;3.87;;;11.10;99.90;;;;;;5045022;28;20196;-89
2021/12/31 03:56:56;;;;;;;4.37;3.97;;;11.10;99.90;;;;;;5040896;28;20232;-89
2021/12/31 03:59:22;;;;;;;5.00;4.30;;;11.00;99.90;;;;;;5064446;28;20585;-89
2021/12/31 04:01:48;;;;;;;5.57;3.93;;;11.00;99.90;;;;;;5081992;28;20217;-91
2021/12/31 04:04:13;;;;;;;5.87;4.60;;;11.00;99.90;;;;;;5060399;28;20272;-90
2021/12/31 04:06:40;;;;;;;5.30;3.90;;;11.00;99.90;;;;;;5074682;28;20222;-89
2021/12/31 04:09:06;;;;;;;4.83;3.90;;;11.00;99.90;;;;;;5057992;28;20260;-89
2021/12/31 04:11:32;;;;;;;4.03;3.63;;;11.00;99.90;;;;;;5056443;28;20214;-89
2021/12/31 04:13:57;;;;;;;4.27;3.53;;;10.90;99.90;;;;;;5060490;28;20195;-89
2021/12/31 04:16:23;;;;;;;4.07;3.67;;;11.00;99.90;;;;;;5044989;28;20195;-89
2021/12/31 04:18:49;;;;;;;5.40;3.80;;;10.90;99.90;;;;;;5062095;28;20172;-91
2021/12/31 04:21:16;;;;;;;4.07;3.67;;;11.00;99.90;;;;;;5063498;28;20196;-89
2021/12/31 04:26:38;;;;;;;4.60;4.20;;;10.80;99.90;;;;;;4994284;28;20604;-91
2021/12/31 04:29:04;;;;;;;4.23;3.83;;;10.80;99.90;;;;;;5073865;28;20210;-89
2021/12/31 04:31:29;;;;;;;4.13;3.70;;;10.80;99.90;;;;;;5060823;28;20267;-89
2021/12/31 04:33:55;;;;;;;7.47;3.93;;;10.80;99.90;;;;;;5080190;28;20183;-89
2021/12/31 04:36:21;;;;;;;4.57;3.80;;;10.80;99.90;;;;;;5053184;28;20577;-89
2021/12/31 04:38:46;;;;;;;4.40;4.00;;;10.70;99.90;;;;;;5060603;28;20599;-89
2021/12/31 04:41:12;;;;;;;4.00;3.60;;;10.70;99.90;;;;;;5060444;28;20602;-89
2021/12/31 04:43:38;;;;;;;4.57;4.00;;;10.70;99.90;;;;;;5046787;28;20243;-89
2021/12/31 04:46:03;;;;;;;3.83;3.53;;;10.70;99.90;;;;;;5047204;28;20211;-90
2021/12/31 04:48:29;;;;;;;4.20;3.63;;;10.70;99.90;;;;;;5062400;28;20184;-89
2021/12/31 04:50:55;;;;;;;4.10;3.67;;;10.70;99.90;;;;;;5063700;28;20219;-90
2021/12/31 04:53:20;;;;;;;3.80;3.40;;;10.60;99.90;;;;;;5049971;28;20256;-89
2021/12/31 04:55:46;;;;;;;3.87;3.37;;;10.60;99.90;;;;;;5052981;28;20199;-90
2021/12/31 04:58:13;;;;;;;3.67;3.37;;;10.70;99.90;;;;;;5078383;28;20199;-90
2021/12/31 05:00:38;;;;;;;4.27;3.60;;;10.60;99.90;;;;;;5037104;28;20235;-89
2021/12/31 05:03:08;;;;;;;3.67;3.37;;;10.60;99.90;;;;;;5033473;28;20204;-89
2021/12/31 05:05:35;;;;;;;3.93;3.53;;;10.40;99.90;;;;;;5044698;28;20202;-90
2021/12/31 05:08:01;;;;;;;3.33;3.03;;;10.30;99.90;;;;;;5091480;28;20195;-90
2021/12/31 05:10:30;;;;;;;3.80;3.50;;;10.30;99.90;;;;;;5072577;28;20211;-89
2021/12/31 05:12:57;;;;;;;3.57;3.27;;;10.30;99.90;;;;;;5054511;28;20179;-89
2021/12/31 05:15:27;;;;;;;4.07;3.63;;;10.30;99.90;;;;;;5076598;28;20217;-89
2021/12/31 05:17:53;;;;;;;4.07;3.63;;;10.30;99.90;;;;;;5066177;28;20199;-90
2021/12/31 05:20:19;;;;;;;4.10;3.80;;;10.20;99.90;;;;;;5047684;28;20214;-89
2021/12/31 05:22:45;;;;;;;5.47;5.00;;;10.10;99.90;;;;;;5061661;28;20200;-89
2021/12/31 05:25:11;;;;;;;3.73;3.43;;;10.10;99.90;;;;;;5057126;28;20195;-89
2021/12/31 05:27:36;;;;;;;4.50;4.10;;;10.00;99.90;;;;;;5057474;28;20594;-89
2021/12/31 05:30:03;;;;;;;3.60;3.30;;;10.00;99.90;;;;;;5065326;28;20221;-90
2021/12/31 05:32:29;;;;;;;3.53;3.23;;;9.90;99.90;;;;;;5065319;28;20211;-89
2021/12/31 05:34:55;;;;;;;3.43;3.13;;;9.80;99.90;;;;;;5059020;28;20217;-89
2021/12/31 05:37:20;;;;;;;4.37;3.40;;;9.80;99.90;;;;;;5076149;28;20222;-90
2021/12/31 05:39:46;;;;;;;3.43;3.10;;;9.80;99.90;;;;;;5054520;28;20685;-89
2021/12/31 05:42:12;;;;;;;3.40;3.10;;;9.90;99.90;;;;;;5064089;28;20657;-90
2021/12/31 05:44:38;;;;;;;3.40;3.10;;;9.90;99.90;;;;;;5042680;28;20190;-90
2021/12/31 05:47:04;;;;;;;3.20;2.90;;;10.00;99.90;;;;;;5054726;28;20688;-90
2021/12/31 05:49:30;;;;;;;3.60;3.30;;;10.00;99.90;;;;;;5049584;28;20273;-89
2021/12/31 05:51:55;;;;;;;3.40;3.00;;;9.90;99.90;;;;;;5053745;28;20202;-90
2021/12/31 05:54:21;;;;;;;3.10;2.80;;;9.90;99.90;;;;;;5043035;28;20194;-89
2021/12/31 05:56:47;;;;;;;3.27;2.80;;;9.90;99.90;;;;;;5062760;28;20225;-89
2021/12/31 05:59:14;;;;;;;3.33;3.03;;;9.80;99.90;;;;;;5064385;28;20252;-89
2021/12/31 06:01:40;;;;;;;2.80;2.60;;;9.80;99.90;;;;;;5042800;28;20189;-90
2021/12/31 06:04:06;;;;;;;4.10;3.80;;;9.80;99.90;;;;;;5037313;28;20183;-89
2021/12/31 06:06:32;;;;;;;4.00;3.63;;;9.80;99.90;;;;;;5059619;28;20209;-89
2021/12/31 06:08:57;;;;;;;3.70;3.40;;;9.90;99.90;;;;;;5057469;28;20744;-89
2021/12/31 06:11:23;;;;;;;3.77;3.47;;;9.90;99.90;;;;;;5057861;28;20199;-90
2021/12/31 06:13:55;;;;;;;3.63;3.33;;;9.80;99.90;;;;;;5064813;28;20685;-89
2021/12/31 06:16:21;;;;;;;3.60;3.10;;;9.80;99.90;;;;;;5060233;28;20219;-90
2021/12/31 06:18:47;;;;;;;3.40;3.10;;;9.80;99.90;;;;;;5074876;28;20205;-89
2021/12/31 06:21:12;;;;;;;3.33;3.03;;;9.70;99.90;;;;;;5071185;28;20205;-90
2021/12/31 06:23:38;;;;;;;3.30;2.63;;;9.80;99.90;;;;;;5050065;28;20292;-89
2021/12/31 06:26:04;;;;;;;4.87;3.30;;;9.80;99.90;;;;;;5047120;28;20271;-90
2021/12/31 06:28:29;;;;;;;3.83;3.53;;;9.90;99.90;;;;;;5043796;28;20199;-90
2021/12/31 06:30:55;;;;;;;4.50;4.10;;;9.90;99.90;;;;;;5058416;28;20758;-90
2021/12/31 06:33:21;;;;;;;4.20;3.90;;;9.90;99.90;;;;;;5041033;28;20203;-90
2021/12/31 06:35:47;;;;;;;4.90;4.50;;;9.90;99.90;;;;;;5041135;28;20191;-89
2021/12/31 06:38:12;;;;;;;4.10;3.70;;;9.80;99.90;;;;;;5057036;28;20226;-91
2021/12/31 06:40:39;;;;;;;4.27;3.93;;;9.80;99.90;;;;;;5056546;28;20214;-89
2021/12/31 06:43:04;;;;;;;4.23;3.87;;;9.90;99.90;;;;;;5054716;28;20191;-90
2021/12/31 06:45:30;;;;;;;5.07;4.50;;;9.80;99.90;;;;;;5056164;28;20217;-90
2021/12/31 06:47:57;;;;;;;4.73;4.33;;;9.80;99.90;;;;;;5062529;28;20207;-89
2021/12/31 06:50:23;;;;;;;4.67;4.27;;;9.80;99.90;;;;;;5069524;28;20213;-90
2021/12/31 06:52:49;;;;;;;5.40;4.90;;;9.80;99.90;;;;;;5050446;28;20849;-90
2021/12/31 06:55:15;;;;;;;5.47;4.77;;;9.80;99.90;;;;;;5042512;28;20264;-90
2021/12/31 06:57:40;;;;;;;4.87;4.47;;;9.70;99.90;;;;;;5025242;28;20205;-90
2021/12/31 07:00:08;;;;;;;5.17;4.40;;;9.70;99.90;;;;;;5060774;28;20308;-90
2021/12/31 07:02:34;;;;;;;5.43;4.83;;;9.60;99.90;;;;;;5058415;28;20189;-90
2021/12/31 07:04:59;;;;;;;5.03;4.53;;;9.40;99.90;;;;;;5039474;28;20186;-90
2021/12/31 07:07:25;;;;;;;4.83;4.43;;;9.40;99.90;;;;;;5041165;28;20283;-90
2021/12/31 07:09:51;;;;;;;4.87;4.43;;;9.30;99.90;;;;;;5040465;28;20227;-90
2021/12/31 07:12:16;;;;;;;5.03;4.53;;;9.20;99.90;;;;;;5057046;28;20556;-90
2021/12/31 07:14:42;;;;;;;4.30;3.90;;;9.30;99.90;;;;;;5038049;28;20197;-90
2021/12/31 07:17:10;;;;;;;4.03;3.63;;;9.50;99.90;;;;;;5034649;28;20205;-91
2021/12/31 07:19:36;;;;;;;3.87;3.37;;;9.40;99.90;;;;;;5035200;28;20204;-90
2021/12/31 07:22:01;;;;;;;4.47;3.93;;;9.30;99.90;;;;;;5039192;28;20189;-90
2021/12/31 07:24:27;;;;;;;3.63;3.27;;;9.30;99.90;;;;;;5043821;28;20178;-90
2021/12/31 07:26:53;;;;;;;3.43;3.13;;;9.30;99.90;;;;;;5040281;28;20198;-90
2021/12/31 07:29:19;;;;;;;4.03;3.73;;;9.20;99.90;;;;;;5074115;28;20257;-90
2021/12/31 07:31:44;;;;;;;4.83;4.40;;;9.10;99.90;;;;;;5066982;28;20199;-90
2021/12/31 07:34:10;;;;;;;4.17;3.77;;;8.90;99.90;;;;;;5057181;28;20230;-90
2021/12/31 07:36:36;;;;;;;5.63;4.17;;;8.80;99.90;;;;;;5010949;28;20196;-90
2021/12/31 07:39:07;;;;;;;6.10;5.33;;;8.90;99.90;;;;;;5062650;28;20188;-90
2021/12/31 07:41:33;;;;;;;5.23;4.57;;;8.90;99.90;;;;;;5059722;28;20242;-90
2021/12/31 07:43:59;;;;;;;7.20;4.90;;;9.00;99.90;;;;;;5057881;28;20181;-90
2021/12/31 07:46:25;;;;;;;4.77;4.27;;;9.00;99.90;;;;;;5051348;28;20192;-90
2021/12/31 07:48:50;;;;;;;4.77;4.37;;;8.90;99.90;;;;;;5051143;28;20224;-90
2021/12/31 07:51:16;;;;;;;4.77;4.33;;;8.90;99.90;;;;;;5059923;28;20252;-90
2021/12/31 07:53:42;;;;;;;4.60;4.20;;;9.00;99.90;;;;;;5082182;28;20193;-90
2021/12/31 07:56:08;;;;;;;4.67;4.27;;;8.90;99.90;;;;;;5040800;28;20607;-90
2021/12/31 07:58:37;;;;;;;4.70;3.80;;;8.70;99.90;;;;;;5038565;28;20244;-90
2021/12/31 08:01:03;;;;;;;5.90;4.70;;;8.70;99.90;;;;;;5049999;28;20216;-91
2021/12/31 08:03:28;;;;;;;5.37;4.87;;;8.80;99.90;;;;;;5054930;28;20200;-90
2021/12/31 08:05:54;;;;;;;5.03;4.60;;;8.80;99.90;;;;;;5038060;28;20197;-90
2021/12/31 08:08:20;;;;;;;6.87;5.70;;;8.80;99.90;;;;;;5051737;28;20288;-90
2021/12/31 08:10:46;;;;;;;5.67;5.00;;;8.80;99.90;;;;;;5046796;28;20297;-90
2021/12/31 08:13:12;;;;;;;5.93;4.20;;;8.70;99.90;;;;;;5027323;28;20288;-90
2021/12/31 08:15:38;;;;;;;5.67;4.93;;;8.80;99.90;;;;;;5059890;28;20220;-90
2021/12/31 08:18:04;;;;;;;3.93;3.63;;;8.80;99.90;;;;;;5056872;28;20232;-90
2021/12/31 08:20:29;;;;;;;4.83;4.43;;;8.60;99.90;;;;;;5060563;28;20203;-90
2021/12/31 08:23:04;;;;;;;4.80;4.40;;;8.40;99.90;;;;;;5037619;28;20778;-88
2021/12/31 08:25:30;;;;;;;7.47;5.50;;;8.30;99.90;;;;;;5049566;28;20195;-91
2021/12/31 08:27:55;;;;;;;7.10;4.80;;;8.10;99.90;;;;;;5048231;28;20196;-90
2021/12/31 08:30:21;;;;;;;6.40;5.27;;;8.10;99.90;;;;;;5054472;28;20232;-86
2021/12/31 08:32:47;;;;;;;5.53;4.93;;;8.10;99.90;;;;;;5057928;28;20200;-88
2021/12/31 08:35:12;;;;;;;6.20;5.37;;;8.20;99.90;;;;;;5056739;28;20196;-89
2021/12/31 08:37:38;;;;;;;6.07;5.47;;;8.10;99.90;;;;;;5038249;28;20307;-88
2021/12/31 08:40:04;;;;;;;5.40;4.90;;;7.90;99.90;;;;;;5041472;28;20220;-87
2021/12/31 08:42:30;;;;;;;5.40;4.87;;;7.90;99.90;;;;;;5036586;28;20581;-87
2021/12/31 08:44:56;;;;;;;6.07;5.33;;;7.80;99.90;;;;;;5036447;28;20202;-88
2021/12/31 08:47:21;;;;;;;5.20;4.70;;;7.90;99.90;;;;;;5058581;28;20200;-88
2021/12/31 08:49:48;;;;;;;6.03;5.50;;;7.90;99.90;;;;;;5047392;28;20216;-88
2021/12/31 08:52:14;;;;;;;5.20;4.70;;;8.10;99.90;;;;;;5060365;28;20699;-87
2021/12/31 08:54:40;;;;;;;4.17;3.83;;;8.30;99.90;;;;;;5049500;28;20227;-87
2021/12/31 08:57:05;;;;;;;6.37;4.07;;;8.50;99.90;;;;;;5040431;28;20690;-87
2021/12/31 08:59:31;;;;;;;4.10;3.80;;;8.60;99.90;;;;;;5058639;28;20216;-87
2021/12/31 09:01:57;;;;;;;5.97;4.43;;;8.60;99.90;;;;;;5025866;28;20625;-88
2021/12/31 09:04:23;;;;;;;4.63;4.23;;;8.70;99.90;;;;;;5055556;28;20219;-88
2021/12/31 09:06:49;;;;;;;6.33;5.67;;;8.70;99.90;;;;;;5054765;28;20232;-88
2021/12/31 09:09:14;;;;;;;4.53;4.23;;;8.80;99.90;;;;;;5064015;28;20211;-88
2021/12/31 09:11:41;;;;;;;4.30;4.00;;;8.80;99.90;;;;;;5071449;28;20588;-88
2021/12/31 09:14:07;;;;;;;5.47;4.47;;;8.80;99.90;;;;;;5060457;28;20295;-89
2021/12/31 09:16:32;;;;;;;5.20;4.30;;;8.80;99.90;;;;;;5059829;28;20220;-89
2021/12/31 09:18:58;;;;;;;5.63;4.17;;;8.70;99.90;;;;;;5049350;28;20203;-88
2021/12/31 09:21:24;;;;;;;5.43;4.27;;;8.70;99.90;;;;;;5031569;28;20198;-87
2021/12/31 09:23:49;;;;;;;5.57;4.97;;;8.70;99.90;;;;;;5055448;28;20200;-87
2021/12/31 09:26:16;;;;;;;9.47;8.50;;;8.70;99.90;;;;;;5059586;28;20201;-87
2021/12/31 09:28:43;;;;;;;11.70;5.00;;;8.70;99.90;;;;;;5054057;28;20243;-87
2021/12/31 09:31:10;;;;;;;6.50;5.97;;;8.70;99.90;;;;;;5047478;28;20249;-87
2021/12/31 09:33:36;;;;;;;10.03;5.50;;;8.80;99.90;;;;;;5053907;28;20671;-87
2021/12/31 09:36:02;;;;;;;6.03;5.43;;;8.90;99.90;;;;;;5040898;28;20207;-88
2021/12/31 09:38:28;;;;;;;10.27;7.60;;;8.90;99.90;;;;;;5040344;28;20196;-87
2021/12/31 09:40:54;;;;;;;8.20;6.70;;;9.00;99.90;;;;;;5024882;28;20763;-87
2021/12/31 09:43:22;;;;;;;8.57;6.17;;;9.10;99.90;;;;;;5052483;28;20318;-88
2021/12/31 09:45:50;;;;;;;6.80;6.17;;;9.20;99.90;;;;;;5042081;28;20191;-87
2021/12/31 09:48:21;;;;;;;10.33;6.00;;;9.30;99.90;;;;;;5045933;28;20198;-88
2021/12/31 09:50:49;;;;;;;8.63;7.13;;;9.20;99.90;;;;;;5059970;28;20208;-87
2021/12/31 09:53:16;;;;;;;15.23;7.60;;;9.30;99.90;;;;;;5055264;28;20683;-87
2021/12/31 09:55:51;;;;;;;14.93;7.20;;;9.30;99.90;;;;;;5046358;28;20184;-87
2021/12/31 09:58:20;;;;;;;23.03;6.90;;;9.10;99.90;;;;;;5057434;28;20273;-87
2021/12/31 10:00:47;;;;;;;28.17;7.47;;;9.10;99.90;;;;;;5054204;28;20208;-87
2021/12/31 10:03:16;;;;;;;26.03;7.90;;;9.10;99.90;;;;;;5038521;28;20195;-87
2021/12/31 10:05:44;;;;;;;55.07;8.67;;;9.10;99.90;;;;;;5050645;28;20272;-88
2021/12/31 10:08:30;;;;;;;31.53;9.83;;;9.00;99.90;;;;;;5053551;28;20206;-88
2021/12/31 10:11:20;;;;;;;16.70;8.07;;;8.90;99.90;;;;;;5053527;28;20215;-88
2021/12/31 10:14:03;;;;;;;18.13;7.63;;;9.10;99.90;;;;;;5053520;28;20189;-88
2021/12/31 10:16:29;;;;;;;25.97;8.43;;;9.10;99.90;;;;;;5058298;28;20191;-89
2021/12/31 10:19:18;;;;;;;31.80;8.43;;;9.00;99.90;;;;;;5022214;28;20290;-88
2021/12/31 10:21:46;;;;;;;23.00;8.07;;;9.10;99.90;;;;;;5031183;28;20180;-87
2021/12/31 10:24:34;;;;;;;17.77;7.70;;;9.20;99.90;;;;;;5049333;28;20180;-88
2021/12/31 10:27:20;;;;;;;20.50;7.97;;;9.20;99.90;;;;;;5030637;28;20200;-88
2021/12/31 10:29:55;;;;;;;22.80;8.07;;;9.20;99.90;;;;;;5035072;28;20255;-87
2021/12/31 10:32:22;;;;;;;24.93;8.07;;;9.20;99.90;;;;;;5048962;28;20188;-89
2021/12/31 10:34:49;;;;;;;24.47;9.20;;;9.20;99.90;;;;;;5073569;28;20173;-89
2021/12/31 10:37:20;;;;;;;26.03;9.47;;;9.10;99.90;;;;;;5062049;28;20215;-89
2021/12/31 10:39:56;;;;;;;9.87;8.53;;;9.10;99.90;;;;;;5053387;28;20216;-88
2021/12/31 10:42:31;;;;;;;28.57;9.97;;;9.10;99.90;;;;;;5062591;28;20218;-88
2021/12/31 10:44:57;;;;;;;16.97;9.70;;;9.40;99.90;;;;;;5068813;28;20234;-88
2021/12/31 10:47:37;;;;;;;25.33;9.33;;;9.40;99.90;;;;;;5042953;28;20203;-88
2021/12/31 10:50:03;;;;;;;30.67;10.50;;;9.40;99.90;;;;;;5050786;28;20642;-88
2021/12/31 10:52:39;;;;;;;34.83;10.00;;;9.40;99.90;;;;;;5049366;28;20192;-88
2021/12/31 10:55:24;;;;;;;19.93;10.17;;;9.40;99.90;;;;;;5050061;28;20241;-88
2021/12/31 10:57:59;;;;;;;19.93;10.63;;;9.30;99.90;;;;;;5058064;28;20285;-88
2021/12/31 11:00:28;;;;;;;13.07;10.40;;;9.50;99.90;;;;;;5055728;28;20215;-88
2021/12/31 11:02:56;;;;;;;15.93;10.27;;;9.60;99.90;;;;;;5043659;28;20809;-87
2021/12/31 11:05:23;;;;;;;38.90;35.40;;;9.60;99.90;;;;;;5065470;28;20187;-87
2021/12/31 11:07:51;;;;;;;16.53;13.40;;;9.70;99.90;;;;;;5062936;28;20232;-87
2021/12/31 11:10:19;;;;;;;13.17;9.50;;;9.70;99.90;;;;;;5068015;28;20226;-87
2021/12/31 11:12:46;;;;;;;9.97;8.97;;;9.60;99.90;;;;;;5061945;28;20191;-86
2021/12/31 11:15:15;;;;;;;10.50;9.13;;;9.70;99.90;;;;;;5048918;28;20319;-88
2021/12/31 11:17:41;;;;;;;10.17;9.10;;;9.70;99.90;;;;;;5056207;28;20203;-87
2021/12/31 11:20:08;;;;;;;10.33;9.23;;;9.60;99.90;;;;;;5063107;28;20744;-88
2021/12/31 11:22:35;;;;;;;9.83;8.93;;;9.70;99.90;;;;;;5040340;28;20276;-86
2021/12/31 11:25:24;;;;;;;9.13;8.23;;;9.70;99.90;;;;;;5056133;28;20239;-87
2021/12/31 11:27:52;;;;;;;12.23;9.33;;;9.80;99.90;;;;;;5040859;28;20190;-87
2021/12/31 11:30:35;;;;;;;10.47;9.40;;;9.70;99.90;;;;;;5058951;28;20708;-87
2021/12/31 11:33:18;;;;;;;10.47;9.37;;;9.60;99.90;;;;;;5059007;28;20196;-88
2021/12/31 11:35:56;;;;;;;8.23;7.43;;;9.70;99.90;;;;;;5056409;28;20189;-87
2021/12/31 11:38:21;;;;;;;9.07;8.27;;;9.80;99.90;;;;;;5048010;28;20244;-86
2021/12/31 11:41:01;;;;;;;8.93;8.03;;;9.80;99.90;;;;;;5063314;28;20227;-88
2021/12/31 11:43:28;;;;;;;10.13;9.13;;;9.80;99.90;;;;;;5059006;28;20194;-87
2021/12/31 11:46:12;;;;;;;9.33;8.53;;;9.90;99.90;;;;;;5046009;28;20203;-87
2021/12/31 11:48:51;;;;;;;11.17;10.07;;;10.10;99.90;;;;;;5060983;28;20611;-87
2021/12/31 11:51:33;;;;;;;10.57;9.63;;;10.40;99.90;;;;;;5047292;28;20194;-88
2021/12/31 11:53:58;;;;;;;11.10;10.10;;;10.60;99.90;;;;;;5059555;28;20214;-88
2021/12/31 11:56:36;;;;;;;10.03;9.03;;;10.60;99.90;;;;;;5060511;28;20200;-88
2021/12/31 11:59:07;;;;;;;9.83;8.63;;;10.60;99.90;;;;;;5054599;28;20201;-87
2021/12/31 12:01:47;;;;;;;10.10;9.20;;;10.70;99.90;;;;;;5056648;28;20200;-87
2021/12/31 12:04:36;;;;;;;10.80;9.83;;;10.50;99.90;;;;;;5049027;28;20215;-87
2021/12/31 12:07:03;;;;;;;11.37;10.37;;;10.30;99.90;;;;;;5050509;28;20246;-87
2021/12/31 12:09:38;;;;;;;11.33;10.33;;;10.20;99.90;;;;;;5055645;28;20209;-87
2021/12/31 12:12:27;;;;;;;11.80;10.70;;;10.30;99.90;;;;;;5061762;28;20189;-88
2021/12/31 12:14:54;;;;;;;12.63;9.40;;;10.70;99.90;;;;;;5063310;28;20531;-87
2021/12/31 12:17:43;;;;;;;11.60;10.43;;;10.70;99.90;;;;;;5058533;28;20213;-87
2021/12/31 12:20:20;;;;;;;10.13;9.23;;;10.90;99.90;;;;;;5060491;28;20205;-87
2021/12/31 12:22:54;;;;;;;10.17;9.10;;;11.40;99.90;;;;;;5061250;28;20190;-87
2021/12/31 12:25:21;;;;;;;10.10;9.10;;;11.90;99.90;;;;;;5055179;28;20197;-87
2021/12/31 12:27:49;;;;;;;9.17;8.37;;;12.40;99.90;;;;;;5061549;28;20198;-88
2021/12/31 12:30:16;;;;;;;8.43;7.63;;;12.50;99.90;;;;;;5065211;28;20249;-88
2021/12/31 12:35:21;;;;;;;8.93;8.03;;;12.20;99.90;;;;;;5057051;28;20204;-88
2021/12/31 12:37:57;;;;;;;9.27;8.23;;;11.90;99.90;;;;;;5065250;28;20222;-88
2021/12/31 12:40:40;;;;;;;9.43;8.47;;;11.70;99.90;;;;;;5060157;28;20607;-88
2021/12/31 12:43:16;;;;;;;9.27;8.23;;;11.80;99.90;;;;;;5051883;28;20251;-87
2021/12/31 12:45:44;;;;;;;11.60;8.20;;;11.90;99.90;;;;;;5056413;28;20190;-87
2021/12/31 12:48:10;;;;;;;8.70;7.77;;;12.00;99.90;;;;;;5042516;28;20199;-87
2021/12/31 12:50:37;;;;;;;8.07;7.37;;;12.00;99.90;;;;;;5062889;28;20715;-87
2021/12/31 12:53:04;;;;;;;8.07;7.40;;;12.10;99.90;;;;;;5076293;28;20194;-87
2021/12/31 12:55:30;;;;;;;7.37;6.77;;;12.30;99.90;;;;;;5053558;28;20252;-87
2021/12/31 12:58:01;;;;;;;8.17;7.47;;;12.60;99.90;;;;;;5070270;28;20216;-87
2021/12/31 13:00:38;;;;;;;8.20;7.40;;;12.70;99.90;;;;;;5032648;28;20212;-88